sensor_id;sensor_type;location;lat;lon;timestamp;temperature;humidity
57132;DHT22;43005;52.922;5.742;2023-11-21T00:00:11;11.60;99.90
57132;DHT22;43005;52.922;5.742;2023-11-21T00:02:38;11.60;99.90
57132;DHT22;43005;52.922;5.742;2023-11-21T00:05:06;11.60;99.90
57132;DHT22;43005;52.922;5.742;2023-11-21T00:07:35;11.60;99.90
57132;DHT22;43005;52.922;5.742;2023-11-21T00:10:02;11.60;99.90
57132;DHT22;43005;52.922;5.742;2023-11-21T00:12:30;11.60;99.90
57132;DHT22;43005;52.922;5.742;2023-11-21T00:14:58;11.60;99.90
57132;DHT22;43005;52.922;5.742;2023-11-21T00:17:25;11.60;99.90
57132;DHT22;43005;52.922;5.742;2023-11-21T00:19:52;11.50;99.90
57132;DHT22;43005;52.922;5.742;2023-11-21T00:22:20;11.60;99.90
57132;DHT22;43005;52.922;5.742;2023-11-21T00:24:48;11.60;99.90
57132;DHT22;43005;52.922;5.742;2023-11-21T00:27:15;11.60;99.90
57132;DHT22;43005;52.922;5.742;2023-11-21T00:29:42;11.60;99.90
57132;DHT22;43005;52.922;5.742;2023-11-21T00:32:09;11.60;99.90
57132;DHT22;43005;52.922;5.742;2023-11-21T00:34:35;11.60;99.90
57132;DHT22;43005;52.922;5.742;2023-11-21T00:37:03;11.70;99.90
57132;DHT22;43005;52.922;5.742;2023-11-21T00:39:30;11.60;99.90
57132;DHT22;43005;52.922;5.742;2023-11-21T00:42:00;11.60;99.90
57132;DHT22;43005;52.922;5.742;2023-11-21T00:44:27;11.60;99.90
57132;DHT22;43005;52.922;5.742;2023-11-21T00:46:53;11.50;99.90
57132;DHT22;43005;52.922;5.742;2023-11-21T00:49:20;11.60;99.90
57132;DHT22;43005;52.922;5.742;2023-11-21T00:51:47;11.50;99.90
57132;DHT22;43005;52.922;5.742;2023-11-21T00:54:14;11.50;99.90
57132;DHT22;43005;52.922;5.742;2023-11-21T00:56:43;11.50;99.90
57132;DHT22;43005;52.922;5.742;2023-11-21T00:59:11;11.50;99.90
57132;DHT22;43005;52.922;5.742;2023-11-21T01:01:38;11.60;99.90
57132;DHT22;43005;52.922;5.742;2023-11-21T01:04:05;11.60;99.90
57132;DHT22;43005;52.922;5.742;2023-11-21T01:06:32;11.60;99.90
57132;DHT22;43005;52.922;5.742;2023-11-21T01:08:59;11.60;99.90
57132;DHT22;43005;52.922;5.742;2023-11-21T01:11:26;11.60;99.90
57132;DHT22;43005;52.922;5.742;2023-11-21T01:13:53;11.70;99.90
57132;DHT22;43005;52.922;5.742;2023-11-21T01:16:21;11.70;99.90
57132;DHT22;43005;52.922;5.742;2023-11-21T01:18:48;11.70;99.90
57132;DHT22;43005;52.922;5.742;2023-11-21T01:21:15;11.70;99.90
57132;DHT22;43005;52.922;5.742;2023-11-21T01:23:42;11.70;99.90
57132;DHT22;43005;52.922;5.742;2023-11-21T01:26:09;11.70;99.90
57132;DHT22;43005;52.922;5.742;2023-11-21T01:28:36;11.70;99.90
57132;DHT22;43005;52.922;5.742;2023-11-21T01:31:03;11.70;99.90
57132;DHT22;43005;52.922;5.742;2023-11-21T01:33:31;11.70;99.90
57132;DHT22;43005;52.922;5.742;2023-11-21T01:35:58;11.70;99.90
57132;DHT22;43005;52.922;5.742;2023-11-21T01:38:25;11.70;99.90
57132;DHT22;43005;52.922;5.742;2023-11-21T01:40:52;11.70;99.90
57132;DHT22;43005;52.922;5.742;2023-11-21T01:43:19;11.70;99.90
57132;DHT22;43005;52.922;5.742;2023-11-21T01:45:47;11.70;99.90
57132;DHT22;43005;52.922;5.742;2023-11-21T01:48:14;11.70;99.90
57132;DHT22;43005;52.922;5.742;2023-11-21T01:50:43;11.70;99.90
57132;DHT22;43005;52.922;5.742;2023-11-21T01:53:12;11.70;99.90
57132;DHT22;43005;52.922;5.742;2023-11-21T01:55:40;11.80;99.90
57132;DHT22;43005;52.922;5.742;2023-11-21T01:58:09;11.80;99.90
57132;DHT22;43005;52.922;5.742;2023-11-21T02:00:37;11.70;99.90
57132;DHT22;43005;52.922;5.742;2023-11-21T02:03:04;11.80;99.90
57132;DHT22;43005;52.922;5.742;2023-11-21T02:05:32;11.80;99.90
57132;DHT22;43005;52.922;5.742;2023-11-21T02:08:00;11.80;99.90
57132;DHT22;43005;52.922;5.742;2023-11-21T02:10:28;11.80;99.90
57132;DHT22;43005;52.922;5.742;2023-11-21T02:12:56;11.80;99.90
57132;DHT22;43005;52.922;5.742;2023-11-21T02:15:24;11.90;99.90
57132;DHT22;43005;52.922;5.742;2023-11-21T02:17:54;11.90;99.90
57132;DHT22;43005;52.922;5.742;2023-11-21T02:20:24;11.90;99.90
57132;DHT22;43005;52.922;5.742;2023-11-21T02:22:54;11.90;99.90
57132;DHT22;43005;52.922;5.742;2023-11-21T02:25:23;11.90;99.90
57132;DHT22;43005;52.922;5.742;2023-11-21T02:27:50;12.00;99.90
57132;DHT22;43005;52.922;5.742;2023-11-21T02:30:17;12.00;99.90
57132;DHT22;43005;52.922;5.742;2023-11-21T02:32:44;12.00;99.90
57132;DHT22;43005;52.922;5.742;2023-11-21T02:35:11;12.00;99.90
57132;DHT22;43005;52.922;5.742;2023-11-21T02:37:38;12.00;99.90
57132;DHT22;43005;52.922;5.742;2023-11-21T02:40:09;12.00;99.90
57132;DHT22;43005;52.922;5.742;2023-11-21T02:42:38;12.00;99.90
57132;DHT22;43005;52.922;5.742;2023-11-21T02:45:06;12.00;99.90
57132;DHT22;43005;52.922;5.742;2023-11-21T02:47:33;12.00;99.90
57132;DHT22;43005;52.922;5.742;2023-11-21T02:50:00;12.10;99.90
57132;DHT22;43005;52.922;5.742;2023-11-21T02:52:27;12.10;99.90
57132;DHT22;43005;52.922;5.742;2023-11-21T02:54:54;12.10;99.90
57132;DHT22;43005;52.922;5.742;2023-11-21T02:57:22;12.10;99.90
57132;DHT22;43005;52.922;5.742;2023-11-21T02:59:49;12.10;99.90
57132;DHT22;43005;52.922;5.742;2023-11-21T03:02:16;12.10;99.90
57132;DHT22;43005;52.922;5.742;2023-11-21T03:04:43;12.10;99.90
57132;DHT22;43005;52.922;5.742;2023-11-21T03:07:10;12.10;99.90
57132;DHT22;43005;52.922;5.742;2023-11-21T03:09:37;12.10;99.90
57132;DHT22;43005;52.922;5.742;2023-11-21T03:12:05;12.20;99.90
57132;DHT22;43005;52.922;5.742;2023-11-21T03:14:33;12.20;99.90
57132;DHT22;43005;52.922;5.742;2023-11-21T03:17:00;12.20;99.90
57132;DHT22;43005;52.922;5.742;2023-11-21T03:19:27;12.20;99.90
57132;DHT22;43005;52.922;5.742;2023-11-21T03:21:54;12.20;99.90
57132;DHT22;43005;52.922;5.742;2023-11-21T03:24:21;12.20;99.90
57132;DHT22;43005;52.922;5.742;2023-11-21T03:26:48;12.20;99.90
57132;DHT22;43005;52.922;5.742;2023-11-21T03:29:15;12.20;99.90
57132;DHT22;43005;52.922;5.742;2023-11-21T03:31:44;12.20;99.90
57132;DHT22;43005;52.922;5.742;2023-11-21T03:34:16;12.20;99.90
57132;DHT22;43005;52.922;5.742;2023-11-21T03:36:43;12.20;99.90
57132;DHT22;43005;52.922;5.742;2023-11-21T03:39:12;12.20;99.90
57132;DHT22;43005;52.922;5.742;2023-11-21T03:41:38;12.20;99.90
57132;DHT22;43005;52.922;5.742;2023-11-21T03:44:06;12.30;99.90
57132;DHT22;43005;52.922;5.742;2023-11-21T03:46:33;12.30;99.90
57132;DHT22;43005;52.922;5.742;2023-11-21T03:49:01;12.30;99.90
57132;DHT22;43005;52.922;5.742;2023-11-21T03:51:28;12.30;99.90
57132;DHT22;43005;52.922;5.742;2023-11-21T03:53:55;12.30;99.90
57132;DHT22;43005;52.922;5.742;2023-11-21T03:56:22;12.30;99.90
57132;DHT22;43005;52.922;5.742;2023-11-21T03:58:49;12.20;99.90
57132;DHT22;43005;52.922;5.742;2023-11-21T04:01:20;12.20;99.90
57132;DHT22;43005;52.922;5.742;2023-11-21T04:03:48;12.20;99.90
57132;DHT22;43005;52.922;5.742;2023-11-21T04:06:17;12.20;99.90
57132;DHT22;43005;52.922;5.742;2023-11-21T04:08:44;12.20;99.90
57132;DHT22;43005;52.922;5.742;2023-11-21T04:11:11;12.20;99.90
57132;DHT22;43005;52.922;5.742;2023-11-21T04:13:38;12.30;99.90
57132;DHT22;43005;52.922;5.742;2023-11-21T04:16:06;12.20;99.90
57132;DHT22;43005;52.922;5.742;2023-11-21T04:18:34;12.20;99.90
57132;DHT22;43005;52.922;5.742;2023-11-21T04:21:01;12.20;99.90
57132;DHT22;43005;52.922;5.742;2023-11-21T04:23:30;12.20;99.90
57132;DHT22;43005;52.922;5.742;2023-11-21T04:25:57;12.20;99.90
57132;DHT22;43005;52.922;5.742;2023-11-21T04:28:24;12.20;99.90
57132;DHT22;43005;52.922;5.742;2023-11-21T04:30:51;12.10;99.90
57132;DHT22;43005;52.922;5.742;2023-11-21T04:33:18;12.10;99.90
57132;DHT22;43005;52.922;5.742;2023-11-21T04:35:45;12.00;99.90
57132;DHT22;43005;52.922;5.742;2023-11-21T04:38:12;12.00;99.90
57132;DHT22;43005;52.922;5.742;2023-11-21T04:40:40;12.00;99.90
57132;DHT22;43005;52.922;5.742;2023-11-21T04:43:07;12.00;99.90
57132;DHT22;43005;52.922;5.742;2023-11-21T04:45:34;11.90;99.90
57132;DHT22;43005;52.922;5.742;2023-11-21T04:48:01;11.90;99.90
57132;DHT22;43005;52.922;5.742;2023-11-21T04:50:28;11.90;99.90
57132;DHT22;43005;52.922;5.742;2023-11-21T04:52:55;11.90;99.90
57132;DHT22;43005;52.922;5.742;2023-11-21T04:55:22;11.80;99.90
57132;DHT22;43005;52.922;5.742;2023-11-21T04:57:50;11.80;99.90
57132;DHT22;43005;52.922;5.742;2023-11-21T05:00:17;11.80;99.90
57132;DHT22;43005;52.922;5.742;2023-11-21T05:02:44;11.70;99.90
57132;DHT22;43005;52.922;5.742;2023-11-21T05:05:12;11.70;99.90
57132;DHT22;43005;52.922;5.742;2023-11-21T05:07:40;11.60;99.90
57132;DHT22;43005;52.922;5.742;2023-11-21T05:10:08;11.60;99.90
57132;DHT22;43005;52.922;5.742;2023-11-21T05:12:37;11.60;99.90
57132;DHT22;43005;52.922;5.742;2023-11-21T05:15:07;11.50;99.90
57132;DHT22;43005;52.922;5.742;2023-11-21T05:17:35;11.50;99.90
57132;DHT22;43005;52.922;5.742;2023-11-21T05:20:03;11.50;99.90
57132;DHT22;43005;52.922;5.742;2023-11-21T05:22:34;11.50;99.90
57132;DHT22;43005;52.922;5.742;2023-11-21T05:25:01;11.50;99.90
57132;DHT22;43005;52.922;5.742;2023-11-21T05:27:29;11.50;99.90
57132;DHT22;43005;52.922;5.742;2023-11-21T05:29:56;11.40;99.90
57132;DHT22;43005;52.922;5.742;2023-11-21T05:32:25;11.40;99.90
57132;DHT22;43005;52.922;5.742;2023-11-21T05:34:52;11.40;99.90
57132;DHT22;43005;52.922;5.742;2023-11-21T05:37:19;11.40;99.90
57132;DHT22;43005;52.922;5.742;2023-11-21T05:39:46;11.40;99.90
57132;DHT22;43005;52.922;5.742;2023-11-21T05:42:13;11.40;99.90
57132;DHT22;43005;52.922;5.742;2023-11-21T05:44:42;11.40;99.90
57132;DHT22;43005;52.922;5.742;2023-11-21T05:47:09;11.40;99.90
57132;DHT22;43005;52.922;5.742;2023-11-21T05:49:38;11.40;99.90
57132;DHT22;43005;52.922;5.742;2023-11-21T05:52:05;11.40;99.90
57132;DHT22;43005;52.922;5.742;2023-11-21T05:54:32;11.40;99.90
57132;DHT22;43005;52.922;5.742;2023-11-21T05:56:59;11.40;99.90
57132;DHT22;43005;52.922;5.742;2023-11-21T05:59:26;11.30;99.90
57132;DHT22;43005;52.922;5.742;2023-11-21T06:01:53;11.30;99.90
57132;DHT22;43005;52.922;5.742;2023-11-21T06:04:20;11.30;99.90
57132;DHT22;43005;52.922;5.742;2023-11-21T06:06:51;11.30;99.90
57132;DHT22;43005;52.922;5.742;2023-11-21T06:09:18;11.30;99.90
57132;DHT22;43005;52.922;5.742;2023-11-21T06:11:45;11.30;99.90
57132;DHT22;43005;52.922;5.742;2023-11-21T06:14:12;11.30;99.90
57132;DHT22;43005;52.922;5.742;2023-11-21T06:16:38;11.30;99.90
57132;DHT22;43005;52.922;5.742;2023-11-21T06:19:06;11.30;99.90
57132;DHT22;43005;52.922;5.742;2023-11-21T06:21:33;11.30;99.90
57132;DHT22;43005;52.922;5.742;2023-11-21T06:24:02;11.30;99.90
57132;DHT22;43005;52.922;5.742;2023-11-21T06:26:29;11.30;99.90
57132;DHT22;43005;52.922;5.742;2023-11-21T06:28:57;11.30;99.90
57132;DHT22;43005;52.922;5.742;2023-11-21T06:31:24;11.30;99.90
57132;DHT22;43005;52.922;5.742;2023-11-21T06:33:51;11.30;99.90
57132;DHT22;43005;52.922;5.742;2023-11-21T06:36:18;11.30;99.90
57132;DHT22;43005;52.922;5.742;2023-11-21T06:38:45;11.30;99.90
57132;DHT22;43005;52.922;5.742;2023-11-21T06:41:14;11.30;99.90
57132;DHT22;43005;52.922;5.742;2023-11-21T06:43:41;11.20;99.90
57132;DHT22;43005;52.922;5.742;2023-11-21T06:46:12;11.20;99.90
57132;DHT22;43005;52.922;5.742;2023-11-21T06:48:41;11.20;99.90
57132;DHT22;43005;52.922;5.742;2023-11-21T06:51:08;11.20;99.90
57132;DHT22;43005;52.922;5.742;2023-11-21T06:53:37;11.10;99.90
57132;DHT22;43005;52.922;5.742;2023-11-21T06:56:05;11.20;99.90
57132;DHT22;43005;52.922;5.742;2023-11-21T06:58:43;11.10;99.90
57132;DHT22;43005;52.922;5.742;2023-11-21T07:01:11;11.20;99.90
57132;DHT22;43005;52.922;5.742;2023-11-21T07:03:38;11.10;99.90
57132;DHT22;43005;52.922;5.742;2023-11-21T07:06:05;11.10;99.90
57132;DHT22;43005;52.922;5.742;2023-11-21T07:08:33;11.10;99.90
57132;DHT22;43005;52.922;5.742;2023-11-21T07:11:00;11.10;99.90
57132;DHT22;43005;52.922;5.742;2023-11-21T07:13:28;11.10;99.90
57132;DHT22;43005;52.922;5.742;2023-11-21T07:15:57;11.10;99.90
57132;DHT22;43005;52.922;5.742;2023-11-21T07:18:24;11.10;99.90
57132;DHT22;43005;52.922;5.742;2023-11-21T07:20:50;11.10;99.90
57132;DHT22;43005;52.922;5.742;2023-11-21T07:23:17;11.10;99.90
57132;DHT22;43005;52.922;5.742;2023-11-21T07:25:44;11.10;99.90
57132;DHT22;43005;52.922;5.742;2023-11-21T07:28:11;11.10;99.90
57132;DHT22;43005;52.922;5.742;2023-11-21T07:30:38;11.10;99.90
57132;DHT22;43005;52.922;5.742;2023-11-21T07:33:06;11.10;99.90
57132;DHT22;43005;52.922;5.742;2023-11-21T07:35:33;11.10;99.90
57132;DHT22;43005;52.922;5.742;2023-11-21T07:38:00;11.10;99.90
57132;DHT22;43005;52.922;5.742;2023-11-21T07:40:27;11.10;99.90
57132;DHT22;43005;52.922;5.742;2023-11-21T07:42:54;11.10;99.90
57132;DHT22;43005;52.922;5.742;2023-11-21T07:45:23;11.10;99.90
57132;DHT22;43005;52.922;5.742;2023-11-21T07:47:49;11.10;99.90
57132;DHT22;43005;52.922;5.742;2023-11-21T07:50:18;11.10;99.90
57132;DHT22;43005;52.922;5.742;2023-11-21T07:52:46;11.00;99.90
57132;DHT22;43005;52.922;5.742;2023-11-21T07:55:13;11.00;99.90
57132;DHT22;43005;52.922;5.742;2023-11-21T07:57:40;11.00;99.90
57132;DHT22;43005;52.922;5.742;2023-11-21T08:00:07;11.10;99.90
57132;DHT22;43005;52.922;5.742;2023-11-21T08:02:37;11.10;99.90
57132;DHT22;43005;52.922;5.742;2023-11-21T08:05:05;11.10;99.90
57132;DHT22;43005;52.922;5.742;2023-11-21T08:07:34;11.10;99.90
57132;DHT22;43005;52.922;5.742;2023-11-21T08:10:01;11.00;99.90
57132;DHT22;43005;52.922;5.742;2023-11-21T08:12:30;11.00;99.90
57132;DHT22;43005;52.922;5.742;2023-11-21T08:14:57;11.00;99.90
57132;DHT22;43005;52.922;5.742;2023-11-21T08:17:24;11.10;99.90
57132;DHT22;43005;52.922;5.742;2023-11-21T08:19:51;11.00;99.90
57132;DHT22;43005;52.922;5.742;2023-11-21T08:22:18;11.00;99.90
57132;DHT22;43005;52.922;5.742;2023-11-21T08:24:46;11.00;99.90
57132;DHT22;43005;52.922;5.742;2023-11-21T08:27:13;11.00;99.90
57132;DHT22;43005;52.922;5.742;2023-11-21T08:29:41;11.00;99.90
57132;DHT22;43005;52.922;5.742;2023-11-21T08:32:08;10.90;99.90
57132;DHT22;43005;52.922;5.742;2023-11-21T08:34:35;10.90;99.90
57132;DHT22;43005;52.922;5.742;2023-11-21T08:37:02;10.90;99.90
57132;DHT22;43005;52.922;5.742;2023-11-21T08:39:29;10.80;99.90
57132;DHT22;43005;52.922;5.742;2023-11-21T08:41:58;10.80;99.90
57132;DHT22;43005;52.922;5.742;2023-11-21T08:44:25;10.70;99.90
57132;DHT22;43005;52.922;5.742;2023-11-21T08:46:52;10.60;99.90
57132;DHT22;43005;52.922;5.742;2023-11-21T08:49:19;10.60;99.90
57132;DHT22;43005;52.922;5.742;2023-11-21T08:51:46;10.60;99.90
57132;DHT22;43005;52.922;5.742;2023-11-21T08:54:14;10.50;99.90
57132;DHT22;43005;52.922;5.742;2023-11-21T08:56:42;10.50;99.90
57132;DHT22;43005;52.922;5.742;2023-11-21T08:59:11;10.50;99.90
57132;DHT22;43005;52.922;5.742;2023-11-21T09:01:40;10.40;99.90
57132;DHT22;43005;52.922;5.742;2023-11-21T09:04:07;10.40;99.90
57132;DHT22;43005;52.922;5.742;2023-11-21T09:06:34;10.30;99.90
57132;DHT22;43005;52.922;5.742;2023-11-21T09:09:01;10.30;99.90
57132;DHT22;43005;52.922;5.742;2023-11-21T09:11:30;10.30;99.90
57132;DHT22;43005;52.922;5.742;2023-11-21T09:13:59;10.40;99.90
57132;DHT22;43005;52.922;5.742;2023-11-21T09:16:27;10.40;99.90
57132;DHT22;43005;52.922;5.742;2023-11-21T09:18:55;10.50;99.90
57132;DHT22;43005;52.922;5.742;2023-11-21T09:21:22;10.40;99.90
57132;DHT22;43005;52.922;5.742;2023-11-21T09:23:50;10.50;99.90
57132;DHT22;43005;52.922;5.742;2023-11-21T09:26:17;10.60;99.90
57132;DHT22;43005;52.922;5.742;2023-11-21T09:28:44;10.60;99.90
57132;DHT22;43005;52.922;5.742;2023-11-21T09:31:13;10.60;99.90
57132;DHT22;43005;52.922;5.742;2023-11-21T09:33:42;10.70;99.90
57132;DHT22;43005;52.922;5.742;2023-11-21T09:36:11;10.70;99.90
57132;DHT22;43005;52.922;5.742;2023-11-21T09:38:40;10.70;99.90
57132;DHT22;43005;52.922;5.742;2023-11-21T09:41:11;10.70;99.90
57132;DHT22;43005;52.922;5.742;2023-11-21T09:43:43;10.70;99.90
57132;DHT22;43005;52.922;5.742;2023-11-21T09:46:13;10.70;99.90
57132;DHT22;43005;52.922;5.742;2023-11-21T09:48:48;10.70;99.90
57132;DHT22;43005;52.922;5.742;2023-11-21T09:51:18;10.70;99.90
57132;DHT22;43005;52.922;5.742;2023-11-21T09:53:49;10.70;99.90
57132;DHT22;43005;52.922;5.742;2023-11-21T09:56:17;10.70;99.90
57132;DHT22;43005;52.922;5.742;2023-11-21T09:58:51;10.70;99.90
57132;DHT22;43005;52.922;5.742;2023-11-21T10:01:19;10.70;99.90
57132;DHT22;43005;52.922;5.742;2023-11-21T10:03:48;10.70;99.90
57132;DHT22;43005;52.922;5.742;2023-11-21T10:06:17;10.70;99.90
57132;DHT22;43005;52.922;5.742;2023-11-21T10:08:45;10.70;99.90
57132;DHT22;43005;52.922;5.742;2023-11-21T10:11:14;10.80;99.90
57132;DHT22;43005;52.922;5.742;2023-11-21T10:13:44;10.90;99.90
57132;DHT22;43005;52.922;5.742;2023-11-21T10:16:15;10.90;99.90
57132;DHT22;43005;52.922;5.742;2023-11-21T10:18:42;10.90;99.90
57132;DHT22;43005;52.922;5.742;2023-11-21T10:21:13;10.90;99.90
57132;DHT22;43005;52.922;5.742;2023-11-21T10:23:39;10.90;99.90
57132;DHT22;43005;52.922;5.742;2023-11-21T10:26:08;10.90;99.90
57132;DHT22;43005;52.922;5.742;2023-11-21T10:28:41;10.90;99.90
57132;DHT22;43005;52.922;5.742;2023-11-21T10:31:08;10.90;99.90
57132;DHT22;43005;52.922;5.742;2023-11-21T10:33:35;11.00;99.90
57132;DHT22;43005;52.922;5.742;2023-11-21T10:36:03;11.00;99.90
57132;DHT22;43005;52.922;5.742;2023-11-21T10:38:35;11.00;99.90
57132;DHT22;43005;52.922;5.742;2023-11-21T10:41:11;11.00;99.90
57132;DHT22;43005;52.922;5.742;2023-11-21T10:43:41;11.10;99.90
57132;DHT22;43005;52.922;5.742;2023-11-21T10:46:07;11.00;99.90
57132;DHT22;43005;52.922;5.742;2023-11-21T10:48:35;11.00;99.90
57132;DHT22;43005;52.922;5.742;2023-11-21T10:51:07;11.00;99.90
57132;DHT22;43005;52.922;5.742;2023-11-21T10:53:39;11.00;99.90
57132;DHT22;43005;52.922;5.742;2023-11-21T10:56:09;11.00;99.90
57132;DHT22;43005;52.922;5.742;2023-11-21T10:58:42;11.00;99.90
57132;DHT22;43005;52.922;5.742;2023-11-21T11:01:10;11.00;99.90
57132;DHT22;43005;52.922;5.742;2023-11-21T11:03:37;11.00;99.90
57132;DHT22;43005;52.922;5.742;2023-11-21T11:06:05;10.90;99.90
57132;DHT22;43005;52.922;5.742;2023-11-21T11:08:37;10.80;99.90
57132;DHT22;43005;52.922;5.742;2023-11-21T11:11:06;10.70;99.90
57132;DHT22;43005;52.922;5.742;2023-11-21T11:13:35;10.70;99.90
57132;DHT22;43005;52.922;5.742;2023-11-21T11:16:04;10.70;99.90
57132;DHT22;43005;52.922;5.742;2023-11-21T11:18:33;10.70;99.90
57132;DHT22;43005;52.922;5.742;2023-11-21T11:21:07;10.70;99.90
57132;DHT22;43005;52.922;5.742;2023-11-21T11:23:46;10.70;99.90
57132;DHT22;43005;52.922;5.742;2023-11-21T11:26:30;10.70;99.90
57132;DHT22;43005;52.922;5.742;2023-11-21T11:29:05;10.70;99.90
57132;DHT22;43005;52.922;5.742;2023-11-21T11:31:40;10.70;99.90
57132;DHT22;43005;52.922;5.742;2023-11-21T11:34:19;10.80;99.90
57132;DHT22;43005;52.922;5.742;2023-11-21T11:36:55;10.80;99.90
57132;DHT22;43005;52.922;5.742;2023-11-21T11:39:30;10.80;99.90
57132;DHT22;43005;52.922;5.742;2023-11-21T11:42:02;10.80;99.90
57132;DHT22;43005;52.922;5.742;2023-11-21T11:44:57;10.90;99.90
57132;DHT22;43005;52.922;5.742;2023-11-21T11:47:25;10.80;99.90
57132;DHT22;43005;52.922;5.742;2023-11-21T11:50:00;10.80;99.90
57132;DHT22;43005;52.922;5.742;2023-11-21T11:52:40;10.70;99.90
57132;DHT22;43005;52.922;5.742;2023-11-21T11:55:08;10.70;99.90
57132;DHT22;43005;52.922;5.742;2023-11-21T11:57:41;10.70;99.90
57132;DHT22;43005;52.922;5.742;2023-11-21T12:00:13;10.60;99.90
57132;DHT22;43005;52.922;5.742;2023-11-21T12:02:45;10.60;99.90
57132;DHT22;43005;52.922;5.742;2023-11-21T12:05:14;10.60;99.90
57132;DHT22;43005;52.922;5.742;2023-11-21T12:07:46;10.70;99.90
57132;DHT22;43005;52.922;5.742;2023-11-21T12:10:14;10.70;99.90
57132;DHT22;43005;52.922;5.742;2023-11-21T12:12:45;10.80;99.90
57132;DHT22;43005;52.922;5.742;2023-11-21T12:15:13;10.80;99.90
57132;DHT22;43005;52.922;5.742;2023-11-21T12:17:43;10.70;99.90
57132;DHT22;43005;52.922;5.742;2023-11-21T12:20:11;10.70;99.90
57132;DHT22;43005;52.922;5.742;2023-11-21T12:22:43;10.60;99.90
57132;DHT22;43005;52.922;5.742;2023-11-21T12:25:13;10.50;99.90
57132;DHT22;43005;52.922;5.742;2023-11-21T12:27:43;10.40;99.90
57132;DHT22;43005;52.922;5.742;2023-11-21T12:30:13;10.40;99.90
57132;DHT22;43005;52.922;5.742;2023-11-21T12:32:41;10.30;99.90
57132;DHT22;43005;52.922;5.742;2023-11-21T12:35:09;10.30;99.90
57132;DHT22;43005;52.922;5.742;2023-11-21T12:37:37;10.30;99.90
57132;DHT22;43005;52.922;5.742;2023-11-21T12:40:06;10.30;99.90
57132;DHT22;43005;52.922;5.742;2023-11-21T12:42:37;10.30;99.90
57132;DHT22;43005;52.922;5.742;2023-11-21T12:45:20;10.30;99.90
57132;DHT22;43005;52.922;5.742;2023-11-21T12:47:48;10.40;99.90
57132;DHT22;43005;52.922;5.742;2023-11-21T12:50:18;10.50;99.90
57132;DHT22;43005;52.922;5.742;2023-11-21T12:52:47;10.50;99.90
57132;DHT22;43005;52.922;5.742;2023-11-21T12:55:16;10.50;99.90
57132;DHT22;43005;52.922;5.742;2023-11-21T12:57:44;10.50;99.90
57132;DHT22;43005;52.922;5.742;2023-11-21T13:00:13;10.50;99.90
57132;DHT22;43005;52.922;5.742;2023-11-21T13:02:54;10.50;99.90
57132;DHT22;43005;52.922;5.742;2023-11-21T13:05:29;10.40;99.90
57132;DHT22;43005;52.922;5.742;2023-11-21T13:07:57;10.40;99.90
57132;DHT22;43005;52.922;5.742;2023-11-21T13:10:26;10.40;99.90
57132;DHT22;43005;52.922;5.742;2023-11-21T13:12:57;10.40;99.90
57132;DHT22;43005;52.922;5.742;2023-11-21T13:15:27;10.50;99.90
57132;DHT22;43005;52.922;5.742;2023-11-21T13:17:58;10.50;99.90
57132;DHT22;43005;52.922;5.742;2023-11-21T13:20:25;10.50;99.90
57132;DHT22;43005;52.922;5.742;2023-11-21T13:22:54;10.50;99.90
57132;DHT22;43005;52.922;5.742;2023-11-21T13:25:23;10.50;99.90
57132;DHT22;43005;52.922;5.742;2023-11-21T13:27:53;10.50;99.90
57132;DHT22;43005;52.922;5.742;2023-11-21T13:30:19;10.50;99.90
57132;DHT22;43005;52.922;5.742;2023-11-21T13:32:52;10.50;99.90
57132;DHT22;43005;52.922;5.742;2023-11-21T13:35:24;10.60;99.90
57132;DHT22;43005;52.922;5.742;2023-11-21T13:38:04;10.60;99.90
57132;DHT22;43005;52.922;5.742;2023-11-21T13:40:32;10.60;99.90
57132;DHT22;43005;52.922;5.742;2023-11-21T13:43:05;10.70;99.90
57132;DHT22;43005;52.922;5.742;2023-11-21T13:45:35;10.70;99.90
57132;DHT22;43005;52.922;5.742;2023-11-21T13:48:02;10.60;99.90
57132;DHT22;43005;52.922;5.742;2023-11-21T13:50:33;10.70;99.90
57132;DHT22;43005;52.922;5.742;2023-11-21T13:53:01;10.60;99.90
57132;DHT22;43005;52.922;5.742;2023-11-21T13:55:36;10.50;99.90
57132;DHT22;43005;52.922;5.742;2023-11-21T13:58:04;10.50;99.90
57132;DHT22;43005;52.922;5.742;2023-11-21T14:00:35;10.30;99.90
57132;DHT22;43005;52.922;5.742;2023-11-21T14:03:11;10.20;99.90
57132;DHT22;43005;52.922;5.742;2023-11-21T14:05:46;10.10;99.90
57132;DHT22;43005;52.922;5.742;2023-11-21T14:08:17;10.10;99.90
57132;DHT22;43005;52.922;5.742;2023-11-21T14:10:46;10.10;99.90
57132;DHT22;43005;52.922;5.742;2023-11-21T14:13:17;10.00;99.90
57132;DHT22;43005;52.922;5.742;2023-11-21T14:15:44;10.00;99.90
57132;DHT22;43005;52.922;5.742;2023-11-21T14:18:16;9.90;99.90
57132;DHT22;43005;52.922;5.742;2023-11-21T14:20:52;9.90;99.90
57132;DHT22;43005;52.922;5.742;2023-11-21T14:23:20;9.90;99.90
57132;DHT22;43005;52.922;5.742;2023-11-21T14:25:49;9.80;99.90
57132;DHT22;43005;52.922;5.742;2023-11-21T14:28:16;9.70;99.90
57132;DHT22;43005;52.922;5.742;2023-11-21T14:30:44;9.70;99.90
57132;DHT22;43005;52.922;5.742;2023-11-21T14:33:12;9.70;99.90
57132;DHT22;43005;52.922;5.742;2023-11-21T14:35:39;9.70;99.90
57132;DHT22;43005;52.922;5.742;2023-11-21T14:38:08;9.70;99.90
57132;DHT22;43005;52.922;5.742;2023-11-21T14:40:36;9.70;99.90
57132;DHT22;43005;52.922;5.742;2023-11-21T14:43:03;9.80;99.90
57132;DHT22;43005;52.922;5.742;2023-11-21T14:45:31;9.70;99.90
57132;DHT22;43005;52.922;5.742;2023-11-21T14:47:59;9.70;99.90
57132;DHT22;43005;52.922;5.742;2023-11-21T14:50:33;9.70;99.90
57132;DHT22;43005;52.922;5.742;2023-11-21T14:53:15;9.70;99.90
57132;DHT22;43005;52.922;5.742;2023-11-21T14:55:53;9.70;99.90
57132;DHT22;43005;52.922;5.742;2023-11-21T14:58:23;9.70;99.90
57132;DHT22;43005;52.922;5.742;2023-11-21T15:00:54;9.80;99.90
57132;DHT22;43005;52.922;5.742;2023-11-21T15:03:23;9.80;99.90
57132;DHT22;43005;52.922;5.742;2023-11-21T15:06:09;9.80;99.90
57132;DHT22;43005;52.922;5.742;2023-11-21T15:08:55;9.80;99.90
57132;DHT22;43005;52.922;5.742;2023-11-21T15:11:44;9.80;99.90
57132;DHT22;43005;52.922;5.742;2023-11-21T15:14:10;9.80;99.90
57132;DHT22;43005;52.922;5.742;2023-11-21T15:16:41;9.80;99.90
57132;DHT22;43005;52.922;5.742;2023-11-21T15:19:12;9.80;99.90
57132;DHT22;43005;52.922;5.742;2023-11-21T15:21:43;9.70;99.90
57132;DHT22;43005;52.922;5.742;2023-11-21T15:24:12;9.70;99.90
57132;DHT22;43005;52.922;5.742;2023-11-21T15:26:39;9.70;99.90
57132;DHT22;43005;52.922;5.742;2023-11-21T15:29:06;9.70;99.90
57132;DHT22;43005;52.922;5.742;2023-11-21T15:31:33;9.70;99.90
57132;DHT22;43005;52.922;5.742;2023-11-21T15:34:01;9.70;99.90
57132;DHT22;43005;52.922;5.742;2023-11-21T15:36:30;9.70;99.90
57132;DHT22;43005;52.922;5.742;2023-11-21T15:38:57;9.60;99.90
57132;DHT22;43005;52.922;5.742;2023-11-21T15:41:26;9.50;99.90